Terminal Aerodrome Forecast
Issued by NWS

Home | Current Version | Previous Version | Text Only | Print | Product List | Glossary On
Versions: 1 2 3 4 5 6 7 8 9 10 11 12 13 14 15 16 17 18 19 20 21 22 23 24 25
000
FTUS41 KBUF 291123
TAFJHW
TAF
KJHW 291123Z 2912/3012 18005KT P6SM SCT250
     FM291800 22006KT P6SM SCT250
     FM292100 25006KT P6SM SCT250
     FM300000 VRB03KT P6SM SCT250
     FM300400 24004KT P6SM VCSH BKN050
     FM301000 25007KT P6SM SCT250
      AMD LTD TO CLD VIS AND WIND=

USA.gov is the U.S. government's official web portal to all federal, state and local government web resources and services.